METAR Data
IDs: Format: Raw Decoded Include TAF

Data at: 0133 UTC 24 Oct 2019

METAR for:KMPZ (Mount Pleasant Muni, IA, US)
Text:KMPZ 240115Z AUTO 36006KT 10SM CLR 10/06 A2993 RMK AO2
Temperature: 10.0°C ( 50°F)
Dewpoint: 6.0°C ( 43°F) [RH = 76%]
Pressure (altimeter):29.93 inches Hg (1013.6 mb)
Winds:from the N (360 degrees) at 7 MPH (6 knots; 3.1 m/s)
Visibility:10 or more sm (16+ km)
Ceiling:at least 12,000 feet AGL
Clouds:sky clear below 12,000 feet AGL
QC Flag:automated observation with no human augmentation